createdAt,value
2017-10-12T00:01:34.567Z,3.95
2017-10-12T00:04:05.278Z,3.97
2017-10-12T00:06:38.680Z,4.18
2017-10-12T00:09:10.376Z,4.37
2017-10-12T00:11:41.832Z,4.18
2017-10-12T00:14:13.862Z,3.83
2017-10-12T00:16:46.247Z,4.05
2017-10-12T00:19:17.004Z,3.80
2017-10-12T00:21:47.736Z,4.37
2017-10-12T00:24:18.725Z,3.50
2017-10-12T00:26:50.648Z,4.00
2017-10-12T00:29:22.510Z,4.03
2017-10-12T00:31:53.846Z,3.97
2017-10-12T00:34:24.946Z,3.92
2017-10-12T00:36:55.525Z,3.60
2017-10-12T00:39:27.085Z,4.35
2017-10-12T00:41:59.069Z,4.10
2017-10-12T00:44:31.087Z,3.72
2017-10-12T00:47:03.036Z,3.85
2017-10-12T00:49:33.833Z,4.12
2017-10-12T00:52:04.993Z,4.12
2017-10-12T00:54:35.578Z,3.50
2017-10-12T00:57:07.161Z,3.60
2017-10-12T00:59:38.134Z,3.87
2017-10-12T01:02:09.015Z,4.00
2017-10-12T01:04:40.316Z,3.90
2017-10-12T01:07:12.133Z,4.25
2017-10-12T01:09:43.948Z,3.53
2017-10-12T01:12:15.034Z,3.95
2017-10-12T01:14:46.976Z,4.45
2017-10-12T01:17:18.357Z,3.40
2017-10-12T01:19:49.545Z,4.37
2017-10-12T01:22:22.036Z,4.80
2017-10-12T01:24:53.954Z,4.53
2017-10-12T01:27:24.984Z,5.25
2017-10-12T01:29:57.581Z,5.22
2017-10-12T01:32:28.785Z,4.82
2017-10-12T01:34:59.791Z,5.18
2017-10-12T01:37:31.936Z,5.72
2017-10-12T01:40:02.674Z,5.35
2017-10-12T01:42:33.687Z,5.78
2017-10-12T01:45:04.911Z,5.45
2017-10-12T01:47:35.989Z,5.28
2017-10-12T01:50:07.109Z,5.10
2017-10-12T01:52:39.387Z,5.12
2017-10-12T01:55:10.752Z,5.30
2017-10-12T01:57:41.545Z,5.78
2017-10-12T02:00:12.597Z,5.10
2017-10-12T02:02:44.025Z,5.80
2017-10-12T02:05:15.263Z,5.25
2017-10-12T02:07:47.841Z,5.43
2017-10-12T02:10:19.013Z,5.22
2017-10-12T02:12:50.826Z,5.68
2017-10-12T02:15:21.890Z,5.60
2017-10-12T02:17:53.040Z,5.85
2017-10-12T02:20:23.602Z,5.72
2017-10-12T02:22:54.620Z,5.47
2017-10-12T02:25:25.089Z,5.45
2017-10-12T02:27:56.072Z,5.87
2017-10-12T02:30:27.869Z,5.28
2017-10-12T02:32:59.695Z,5.90
2017-10-12T02:35:30.886Z,6.03
2017-10-12T02:38:01.758Z,6.07
2017-10-12T02:40:33.632Z,5.32
2017-10-12T02:43:04.643Z,6.35
2017-10-12T02:45:36.776Z,6.15
2017-10-12T02:48:07.761Z,6.05
2017-10-12T02:50:40.034Z,5.28
2017-10-12T02:53:10.762Z,6.00
2017-10-12T02:55:42.728Z,5.12
2017-10-12T02:58:14.562Z,5.43
2017-10-12T03:00:45.104Z,5.80
2017-10-12T03:03:16.144Z,5.53
2017-10-12T03:05:46.903Z,5.60
2017-10-12T03:08:18.689Z,5.90
2017-10-12T03:10:49.659Z,5.60
2017-10-12T03:13:20.851Z,5.78
2017-10-12T03:15:52.012Z,5.75
2017-10-12T03:18:22.941Z,5.53
2017-10-12T03:20:54.271Z,5.25
2017-10-12T03:23:24.865Z,5.12
2017-10-12T03:25:55.769Z,5.70
2017-10-12T03:28:26.829Z,5.55
2017-10-12T03:30:58.007Z,5.50
2017-10-12T03:33:30.175Z,5.90
2017-10-12T03:36:02.045Z,4.93
2017-10-12T03:38:33.656Z,5.50
2017-10-12T03:41:04.607Z,5.53
2017-10-12T03:43:35.896Z,5.37
2017-10-12T03:46:07.281Z,4.97
2017-10-12T03:48:38.386Z,5.05
2017-10-12T03:51:09.304Z,5.53
2017-10-12T03:53:41.658Z,5.20
2017-10-12T03:56:12.253Z,5.32
2017-10-12T03:58:43.733Z,5.37
2017-10-12T04:01:15.093Z,5.43
2017-10-12T04:03:45.739Z,5.62
2017-10-12T04:06:17.700Z,5.20
2017-10-12T04:08:50.939Z,5.05
2017-10-12T04:11:22.077Z,5.10
2017-10-12T04:13:53.216Z,7.05
2017-10-12T04:16:25.204Z,5.10
2017-10-12T04:18:56.120Z,5.87
2017-10-12T04:21:27.022Z,5.60
2017-10-12T04:23:58.394Z,5.10
2017-10-12T04:26:29.501Z,5.70
2017-10-12T04:29:00.775Z,5.32
2017-10-12T04:31:31.396Z,5.30
2017-10-12T04:34:02.243Z,5.05
2017-10-12T04:36:33.373Z,5.30
2017-10-12T04:39:04.706Z,5.50
2017-10-12T04:41:36.502Z,5.95
2017-10-12T04:44:07.477Z,6.35
2017-10-12T04:46:39.961Z,5.20
2017-10-12T04:49:11.129Z,5.25
2017-10-12T04:51:43.053Z,4.97
2017-10-12T04:54:14.428Z,4.55
2017-10-12T04:56:46.594Z,5.03
2017-10-12T04:59:18.440Z,4.35
2017-10-12T05:01:49.599Z,5.28
2017-10-12T05:04:20.919Z,4.25
2017-10-12T05:06:52.296Z,4.85
2017-10-12T05:09:24.020Z,4.00
2017-10-12T05:11:55.307Z,4.15
2017-10-12T05:14:27.456Z,4.68
2017-10-12T05:16:58.996Z,4.25
2017-10-12T05:19:30.421Z,4.85
2017-10-12T05:22:02.766Z,4.97
2017-10-12T05:24:34.807Z,4.97
2017-10-12T05:27:05.753Z,4.47
2017-10-12T05:29:37.182Z,5.22
2017-10-12T05:32:08.760Z,6.00
2017-10-12T05:34:39.688Z,5.28
2017-10-12T05:37:11.663Z,5.65
2017-10-12T05:39:42.324Z,6.97
2017-10-12T05:42:12.818Z,5.12
2017-10-12T05:44:44.855Z,5.82
2017-10-12T05:47:16.496Z,5.95
2017-10-12T05:49:47.285Z,5.40
2017-10-12T05:52:18.428Z,5.22
2017-10-12T05:54:49.602Z,4.62
2017-10-12T05:57:20.655Z,5.37
2017-10-12T05:59:51.732Z,5.53
2017-10-12T06:02:23.489Z,4.72
2017-10-12T06:04:54.875Z,5.32
2017-10-12T06:07:25.870Z,4.65
2017-10-12T06:09:56.701Z,4.97
2017-10-12T06:12:27.842Z,7.40
2017-10-12T06:14:59.297Z,5.28
2017-10-12T06:17:30.486Z,5.50
2017-10-12T06:20:01.723Z,6.37
2017-10-12T06:22:32.869Z,6.10
2017-10-12T06:25:04.571Z,6.15
2017-10-12T06:27:36.190Z,5.70
2017-10-12T06:30:07.222Z,5.50
2017-10-12T06:32:38.468Z,5.43
2017-10-12T06:35:09.398Z,6.50
2017-10-12T06:37:41.039Z,5.68
2017-10-12T06:40:13.231Z,7.45
2017-10-12T06:42:44.051Z,6.18
2017-10-12T06:45:16.355Z,7.00
2017-10-12T06:47:48.079Z,7.15
2017-10-12T06:50:19.828Z,7.03
2017-10-12T06:52:51.097Z,6.70
2017-10-12T06:55:22.151Z,6.72
2017-10-12T06:57:53.139Z,6.87
2017-10-12T07:00:24.985Z,7.72
2017-10-12T07:02:56.008Z,8.13
2017-10-12T07:05:27.219Z,6.95
2017-10-12T07:07:58.768Z,6.47
2017-10-12T07:10:30.293Z,6.72
2017-10-12T07:13:01.909Z,7.12
2017-10-12T07:15:33.252Z,7.85
2017-10-12T07:18:04.496Z,7.18
2017-10-12T07:20:35.374Z,5.97
2017-10-12T07:23:06.265Z,6.45
2017-10-12T07:25:37.167Z,6.25
2017-10-12T07:28:09.170Z,7.40
2017-10-12T07:30:40.569Z,6.82
2017-10-12T07:33:12.702Z,6.85
2017-10-12T07:35:44.372Z,6.22
2017-10-12T07:38:15.418Z,5.60
2017-10-12T07:40:47.600Z,5.68
2017-10-12T07:43:19.160Z,5.35
2017-10-12T07:45:50.121Z,5.53
2017-10-12T07:48:21.560Z,7.50
2017-10-12T07:50:52.780Z,6.53
2017-10-12T07:53:23.683Z,6.03
2017-10-12T07:55:55.548Z,4.80
2017-10-12T07:58:26.084Z,5.78
2017-10-12T08:00:57.816Z,7.05
2017-10-12T08:03:29.527Z,6.30
2017-10-12T08:06:01.867Z,6.43
2017-10-12T08:08:32.943Z,5.75
2017-10-12T08:11:04.168Z,6.07
2017-10-12T08:13:35.229Z,5.57
2017-10-12T08:16:07.312Z,5.57
2017-10-12T08:18:38.340Z,7.43
2017-10-12T08:21:10.075Z,5.30
2017-10-12T08:23:41.628Z,5.10
2017-10-12T08:26:12.856Z,5.50
2017-10-12T08:28:44.569Z,6.90
2017-10-12T08:31:17.246Z,5.50
2017-10-12T08:33:48.787Z,5.80
2017-10-12T08:36:20.059Z,5.67
2017-10-12T08:38:52.391Z,5.63
2017-10-12T08:41:25.216Z,5.20
2017-10-12T08:43:57.183Z,4.83
2017-10-12T08:46:28.639Z,4.80
2017-10-12T08:49:01.361Z,4.67
2017-10-12T08:51:34.184Z,4.93
2017-10-12T08:54:06.335Z,5.37
2017-10-12T08:56:37.622Z,5.87
2017-10-12T08:59:09.417Z,4.80
2017-10-12T09:01:41.361Z,4.80
2017-10-12T09:04:12.785Z,4.83
2017-10-12T09:06:43.792Z,4.47
2017-10-12T09:09:14.852Z,4.87
2017-10-12T09:11:46.045Z,4.13
2017-10-12T09:14:18.367Z,3.90
2017-10-12T09:16:49.647Z,4.40
2017-10-12T09:19:21.197Z,4.10
2017-10-12T09:21:52.643Z,4.60
2017-10-12T09:24:24.216Z,3.77
2017-10-12T09:26:56.193Z,4.30
2017-10-12T09:29:28.408Z,4.33
2017-10-12T09:31:59.514Z,4.10
2017-10-12T09:34:31.288Z,4.97
2017-10-12T09:37:01.793Z,5.17
2017-10-12T09:39:33.924Z,4.77
2017-10-12T09:42:06.026Z,4.10
2017-10-12T09:44:37.380Z,3.97
2017-10-12T09:47:08.720Z,4.00
2017-10-12T09:49:41.240Z,3.77
2017-10-12T09:52:13.143Z,2.83
2017-10-12T09:54:45.035Z,3.03
2017-10-12T09:57:16.394Z,3.43
2017-10-12T09:59:47.548Z,4.10
2017-10-12T10:02:18.516Z,2.77
2017-10-12T10:04:49.655Z,3.60
2017-10-12T10:07:20.543Z,3.37
2017-10-12T10:09:52.119Z,3.30
2017-10-12T10:12:24.166Z,3.53
2017-10-12T10:14:54.820Z,4.17
2017-10-12T10:17:26.326Z,3.70
2017-10-12T10:19:58.146Z,3.07
2017-10-12T10:22:29.420Z,3.40
2017-10-12T10:25:01.405Z,4.50
2017-10-12T10:27:32.636Z,2.93
2017-10-12T10:30:03.899Z,3.33
2017-10-12T10:32:34.896Z,3.10
2017-10-12T10:35:07.688Z,2.90
2017-10-12T10:37:38.924Z,2.97
2017-10-12T10:40:10.095Z,3.47
2017-10-12T10:42:41.908Z,3.40
2017-10-12T10:45:13.207Z,3.40
2017-10-12T10:47:45.789Z,3.57
2017-10-12T10:50:17.187Z,2.60
2017-10-12T10:52:48.328Z,4.03
2017-10-12T10:55:19.741Z,3.60
2017-10-12T10:57:50.932Z,3.40
2017-10-12T11:00:22.276Z,3.43
2017-10-12T11:02:53.606Z,2.90
2017-10-12T11:05:25.120Z,3.10
2017-10-12T11:07:56.665Z,3.63
2017-10-12T11:10:28.574Z,3.60
2017-10-12T11:12:59.833Z,3.60
2017-10-12T11:15:31.842Z,3.37
2017-10-12T11:18:03.252Z,2.87
2017-10-12T11:20:34.538Z,3.17
2017-10-12T11:23:06.446Z,3.07
2017-10-12T11:25:39.117Z,3.40
2017-10-12T11:28:10.880Z,3.93
2017-10-12T11:30:42.998Z,3.20
2017-10-12T11:33:14.473Z,3.50
2017-10-12T11:35:46.191Z,8.30
2017-10-12T11:38:18.516Z,2.33
2017-10-12T11:40:49.490Z,2.93
2017-10-12T11:43:22.174Z,3.07
2017-10-12T11:45:53.551Z,2.83
2017-10-12T11:48:25.609Z,2.37
2017-10-12T11:50:56.911Z,3.20
2017-10-12T11:53:27.797Z,2.40
2017-10-12T11:55:59.643Z,2.63
2017-10-12T11:58:31.721Z,3.10
2017-10-12T12:01:03.245Z,3.07
2017-10-12T12:03:34.565Z,4.53
2017-10-12T12:06:06.114Z,2.47
2017-10-12T12:08:37.499Z,3.27
2017-10-12T12:11:09.442Z,2.60
2017-10-12T12:13:40.241Z,3.20
2017-10-12T12:16:11.614Z,3.10
2017-10-12T12:18:42.496Z,3.00
2017-10-12T12:21:13.407Z,2.90
2017-10-12T12:23:44.142Z,3.03
2017-10-12T12:26:15.259Z,2.77
2017-10-12T12:28:46.267Z,4.17
2017-10-12T12:31:18.157Z,3.70
2017-10-12T12:33:49.514Z,3.13
2017-10-12T12:36:20.686Z,3.43
2017-10-12T12:38:51.435Z,2.65
2017-10-12T12:41:23.203Z,2.78
2017-10-12T12:43:54.266Z,3.10
2017-10-12T12:46:25.787Z,2.97
2017-10-12T12:48:57.292Z,3.10
2017-10-12T12:51:28.871Z,2.50
2017-10-12T12:54:00.403Z,2.40
2017-10-12T12:56:31.307Z,2.80
2017-10-12T12:59:02.309Z,2.47
2017-10-12T13:01:33.192Z,3.60
2017-10-12T13:04:04.590Z,3.40
2017-10-12T13:06:35.952Z,3.90
2017-10-12T13:09:07.871Z,2.57
2017-10-12T13:11:39.053Z,2.50
2017-10-12T13:14:10.223Z,2.90
2017-10-12T13:16:41.670Z,9.00
2017-10-12T13:19:12.891Z,2.50
2017-10-12T13:21:43.741Z,3.17
2017-10-12T13:24:14.611Z,2.60
2017-10-12T13:26:45.164Z,3.07
2017-10-12T13:29:16.468Z,3.37
2017-10-12T13:31:47.738Z,3.40
2017-10-12T13:34:18.992Z,2.33
2017-10-12T13:36:50.258Z,2.60
2017-10-12T13:39:21.650Z,2.30
2017-10-12T13:41:53.075Z,3.07
2017-10-12T13:44:25.556Z,2.40
2017-10-12T13:46:56.406Z,2.93
2017-10-12T13:49:27.987Z,3.13
2017-10-12T13:51:58.917Z,3.20
2017-10-12T13:54:30.658Z,2.57
2017-10-12T13:57:02.086Z,2.10
2017-10-12T13:59:33.556Z,3.50
2017-10-12T14:02:04.606Z,2.10
2017-10-12T14:04:35.865Z,3.13
2017-10-12T14:07:06.587Z,3.37
2017-10-12T14:09:38.723Z,3.20
2017-10-12T14:12:11.270Z,3.60
2017-10-12T14:14:42.762Z,2.30
2017-10-12T14:17:15.542Z,3.70
2017-10-12T14:19:46.952Z,3.13
2017-10-12T14:22:18.757Z,3.03
2017-10-12T14:24:49.749Z,2.70
2017-10-12T14:27:20.846Z,2.80
2017-10-12T14:29:52.518Z,2.60
2017-10-12T14:32:24.502Z,2.80
2017-10-12T14:34:55.728Z,1.93
2017-10-12T14:37:27.609Z,3.37
2017-10-12T14:39:59.305Z,2.70
2017-10-12T14:42:30.530Z,2.80
2017-10-12T14:45:02.264Z,2.73
2017-10-12T14:47:33.743Z,3.10
2017-10-12T14:50:05.206Z,2.80
2017-10-12T14:52:37.767Z,3.60
2017-10-12T14:55:09.335Z,2.73
2017-10-12T14:57:40.476Z,4.27
2017-10-12T15:00:12.850Z,2.50
2017-10-12T15:02:44.815Z,3.00
2017-10-12T15:05:17.133Z,3.33
2017-10-12T15:07:48.303Z,3.20
2017-10-12T15:10:20.079Z,2.57
2017-10-12T15:12:52.478Z,2.80
2017-10-12T15:15:25.853Z,3.00
2017-10-12T15:17:56.971Z,3.10
2017-10-12T15:20:29.576Z,4.87
2017-10-12T15:23:01.245Z,3.63
2017-10-12T15:25:32.617Z,2.60
2017-10-12T15:28:03.705Z,2.90
2017-10-12T15:30:35.272Z,3.77
2017-10-12T15:33:06.968Z,2.67
2017-10-12T15:35:38.851Z,2.73
2017-10-12T15:38:09.406Z,2.53
2017-10-12T15:40:41.181Z,3.63
2017-10-12T15:43:13.179Z,3.70
2017-10-12T15:45:45.324Z,3.00
2017-10-12T15:48:16.343Z,3.10
2017-10-12T15:50:47.891Z,3.47
2017-10-12T15:53:18.708Z,3.90
2017-10-12T15:55:50.921Z,2.90
2017-10-12T15:58:22.397Z,2.90
2017-10-12T16:00:54.415Z,3.70
2017-10-12T16:03:25.888Z,3.03
2017-10-12T16:05:56.901Z,3.20
2017-10-12T16:08:28.661Z,3.30
2017-10-12T16:11:00.175Z,3.60
2017-10-12T16:13:31.135Z,3.35
2017-10-12T16:16:02.956Z,3.03
2017-10-12T16:18:33.940Z,3.17
2017-10-12T16:21:05.426Z,3.67
2017-10-12T16:23:36.393Z,3.20
2017-10-12T16:26:08.187Z,17.15
2017-10-12T16:28:39.289Z,4.20
2017-10-12T16:31:10.604Z,4.20
2017-10-12T16:33:41.422Z,3.62
2017-10-12T16:36:12.880Z,3.42
2017-10-12T16:38:43.894Z,3.15
2017-10-12T16:41:16.000Z,3.17
2017-10-12T16:43:47.232Z,3.17
2017-10-12T16:46:17.895Z,3.35
2017-10-12T16:48:49.553Z,4.10
2017-10-12T16:51:20.436Z,3.67
2017-10-12T16:53:51.498Z,3.72
2017-10-12T16:56:22.688Z,4.10
2017-10-12T16:58:54.183Z,4.15
2017-10-12T17:01:25.821Z,4.53
2017-10-12T17:03:56.701Z,2.90
2017-10-12T17:06:27.621Z,4.45
2017-10-12T17:08:59.915Z,4.72
2017-10-12T17:11:30.956Z,4.10
2017-10-12T17:14:01.819Z,4.07
2017-10-12T17:16:32.652Z,4.05
2017-10-12T17:19:03.420Z,4.18
2017-10-12T17:21:35.020Z,4.35
2017-10-12T17:24:07.044Z,5.53
2017-10-12T17:26:38.909Z,4.57
2017-10-12T17:29:11.398Z,5.12
2017-10-12T17:31:42.201Z,5.00
2017-10-12T17:34:12.566Z,4.87
2017-10-12T17:36:43.614Z,5.28
2017-10-12T17:39:14.000Z,5.22
2017-10-12T17:41:44.739Z,5.20
2017-10-12T17:44:16.510Z,5.93
2017-10-12T17:46:47.966Z,5.70
2017-10-12T17:49:19.631Z,5.00
2017-10-12T17:51:51.000Z,6.05
2017-10-12T17:54:37.023Z,5.30
2017-10-12T17:56:53.965Z,5.93
2017-10-12T17:59:26.035Z,5.97
2017-10-12T18:01:57.332Z,6.03
2017-10-12T18:06:59.469Z,6.68
2017-10-12T18:09:30.450Z,6.97
2017-10-12T18:14:32.854Z,6.47
2017-10-12T18:17:03.898Z,4.37
2017-10-12T18:19:34.905Z,6.43
2017-10-12T18:22:06.317Z,5.45
2017-10-12T18:24:37.416Z,7.15
2017-10-12T18:27:08.827Z,5.95
2017-10-12T18:29:40.144Z,6.80
2017-10-12T18:32:11.834Z,5.78
2017-10-12T18:34:42.820Z,6.10
2017-10-12T18:42:15.108Z,5.82
2017-10-12T18:44:45.450Z,6.30
2017-10-12T18:47:16.909Z,5.80
2017-10-12T18:49:48.438Z,6.50
2017-10-12T18:52:18.975Z,6.50
2017-10-12T18:54:50.704Z,5.90
2017-10-12T18:57:21.579Z,5.75
2017-10-12T18:59:52.700Z,5.95
2017-10-12T19:02:25.286Z,6.10
2017-10-12T19:04:56.264Z,6.30
2017-10-12T19:07:28.077Z,6.10
2017-10-12T19:09:59.419Z,6.50
2017-10-12T19:12:30.079Z,6.95
2017-10-12T19:15:01.535Z,6.60
2017-10-12T19:17:33.573Z,7.78
2017-10-12T19:20:05.467Z,6.37
2017-10-12T19:22:36.455Z,6.47
2017-10-12T19:25:07.641Z,6.55
2017-10-12T19:27:38.394Z,7.15
2017-10-12T19:30:08.966Z,6.70
2017-10-12T19:32:40.313Z,5.97
2017-10-12T19:35:12.006Z,5.85
2017-10-12T19:37:42.719Z,7.28
2017-10-12T19:40:13.237Z,6.45
2017-10-12T19:42:44.303Z,6.95
2017-10-12T19:45:15.634Z,7.78
2017-10-12T19:47:46.213Z,6.55
2017-10-12T19:50:18.294Z,6.00
2017-10-12T19:52:49.676Z,5.72
2017-10-12T19:55:20.716Z,7.07
2017-10-12T19:57:51.006Z,6.15
2017-10-12T20:00:22.431Z,6.90
2017-10-12T20:02:53.862Z,7.37
2017-10-12T20:05:24.439Z,6.97
2017-10-12T20:07:55.334Z,6.82
2017-10-12T20:10:26.148Z,6.95
2017-10-12T20:12:57.120Z,6.53
2017-10-12T20:15:27.926Z,7.40
2017-10-12T20:17:58.562Z,6.37
2017-10-12T20:20:29.828Z,7.53
2017-10-12T20:23:00.639Z,6.30
2017-10-12T20:25:31.867Z,6.53
2017-10-12T20:28:02.250Z,6.87
2017-10-12T20:30:33.998Z,6.70
2017-10-12T20:33:05.616Z,7.20
2017-10-12T20:35:37.568Z,6.82
2017-10-12T20:38:08.719Z,7.85
2017-10-12T20:40:39.677Z,7.05
2017-10-12T20:43:10.974Z,5.50
2017-10-12T20:45:41.737Z,6.95
2017-10-12T20:48:13.209Z,7.28
2017-10-12T20:50:44.395Z,8.40
2017-10-12T20:53:15.126Z,7.07
2017-10-12T20:55:45.896Z,8.40
2017-10-12T20:58:17.426Z,8.82
2017-10-12T21:00:48.060Z,8.13
2017-10-12T21:03:18.756Z,7.97
2017-10-12T21:05:50.620Z,9.60
2017-10-12T21:08:22.130Z,8.82
2017-10-12T21:10:53.187Z,9.85
2017-10-12T21:13:24.555Z,9.57
2017-10-12T21:15:55.759Z,9.10
2017-10-12T21:18:27.057Z,8.15
2017-10-12T21:20:57.928Z,8.35
2017-10-12T21:23:29.406Z,8.68
2017-10-12T21:26:00.347Z,10.45
2017-10-12T21:28:30.718Z,9.30
2017-10-12T21:31:01.724Z,9.82
2017-10-12T21:33:33.252Z,8.38
2017-10-12T21:36:04.377Z,8.18
2017-10-12T21:38:35.100Z,7.40
2017-10-12T21:41:06.352Z,9.30
2017-10-12T21:43:36.972Z,8.02
2017-10-12T21:46:07.769Z,8.32
2017-10-12T21:48:39.360Z,8.80
2017-10-12T21:51:10.214Z,7.25
2017-10-12T21:53:41.019Z,9.35
2017-10-12T21:56:12.556Z,8.07
2017-10-12T21:58:44.573Z,9.73
2017-10-12T22:01:15.280Z,8.00
2017-10-12T22:03:47.095Z,7.53
2017-10-12T22:06:18.094Z,7.40
2017-10-12T22:08:48.871Z,6.87
2017-10-12T22:11:19.365Z,7.37
2017-10-12T22:13:50.251Z,7.37
2017-10-12T22:16:21.018Z,7.30
2017-10-12T22:18:51.977Z,6.93
2017-10-12T22:21:22.845Z,6.37
2017-10-12T22:23:54.421Z,6.90
2017-10-12T22:26:25.293Z,7.25
2017-10-12T22:28:56.347Z,7.65
2017-10-12T22:31:27.025Z,7.57
2017-10-12T22:33:58.718Z,6.87
2017-10-12T22:36:29.326Z,7.35
2017-10-12T22:39:00.298Z,6.53
2017-10-12T22:41:31.382Z,6.72
2017-10-12T22:44:02.989Z,7.00
2017-10-12T22:46:33.688Z,7.25
2017-10-12T22:49:05.111Z,5.87
2017-10-12T22:51:35.662Z,8.60
2017-10-12T22:54:07.207Z,7.20
2017-10-12T22:56:37.955Z,6.57
2017-10-12T22:59:09.756Z,6.00
2017-10-12T23:01:40.710Z,6.68
2017-10-12T23:04:11.617Z,7.22
2017-10-12T23:06:42.599Z,5.90
2017-10-12T23:09:13.560Z,6.85
2017-10-12T23:11:44.989Z,6.65
2017-10-12T23:14:15.977Z,7.25
2017-10-12T23:16:46.752Z,7.65
2017-10-12T23:19:17.522Z,7.32
2017-10-12T23:21:49.195Z,5.78
2017-10-12T23:24:19.962Z,6.50
2017-10-12T23:26:51.003Z,6.93
2017-10-12T23:29:21.876Z,6.95
2017-10-12T23:31:52.553Z,7.05
2017-10-12T23:34:24.207Z,6.72
2017-10-12T23:36:54.834Z,6.47
2017-10-12T23:39:25.617Z,7.25
2017-10-12T23:41:56.309Z,6.75
2017-10-12T23:44:27.604Z,6.03
2017-10-12T23:46:59.197Z,5.22
2017-10-12T23:49:29.818Z,7.12
2017-10-12T23:52:00.690Z,7.20
2017-10-12T23:54:31.387Z,5.40
2017-10-12T23:57:02.309Z,6.82
2017-10-12T23:59:34.496Z,6.20
